createdAt,value
2023-03-26T00:08:10.234Z,0
2023-03-26T00:20:10.625Z,0
2023-03-26T00:32:10.149Z,0.1
2023-03-26T00:44:10.138Z,0.1
2023-03-26T00:56:10.275Z,0.1
2023-03-26T01:08:00.336Z,0.1
2023-03-26T01:20:00.262Z,0.1
2023-03-26T01:32:00.243Z,0.2
2023-03-26T01:44:00.373Z,0.2
2023-03-26T01:56:00.416Z,0.2
2023-03-26T02:08:00.299Z,0.2
2023-03-26T02:20:00.247Z,0.2
2023-03-26T02:32:00.442Z,0.3
2023-03-26T02:44:00.370Z,0.3
2023-03-26T02:56:00.318Z,0.3
2023-03-26T03:08:00.285Z,0.3
2023-03-26T03:20:00.418Z,0.3
2023-03-26T03:32:00.446Z,0.4
2023-03-26T03:44:00.330Z,0.4
2023-03-26T03:56:00.514Z,0.4
2023-03-26T04:08:00.460Z,0.4
2023-03-26T04:20:00.456Z,0.4
2023-03-26T04:32:00.420Z,0.5
2023-03-26T04:44:00.377Z,0.5
2023-03-26T04:56:00.511Z,0.5
2023-03-26T05:08:00.512Z,0.5
2023-03-26T05:20:00.417Z,0.5
2023-03-26T05:32:00.795Z,0.6
2023-03-26T05:44:00.579Z,0.6
2023-03-26T05:56:00.584Z,0.6
2023-03-26T06:08:00.454Z,0.6
2023-03-26T06:20:00.640Z,0.6
2023-03-26T06:32:09.342Z,0.7
2023-03-26T06:44:00.558Z,0.7
2023-03-26T06:56:00.489Z,0.7
2023-03-26T07:08:00.677Z,0.7
2023-03-26T07:20:00.610Z,0.7
2023-03-26T07:32:00.667Z,0.8
2023-03-26T07:44:00.720Z,0.8
2023-03-26T07:56:00.729Z,0.8
2023-03-26T08:08:00.639Z,0.8
2023-03-26T08:20:00.628Z,0.8
2023-03-26T08:32:00.785Z,0.9
2023-03-26T08:44:00.728Z,0.9
2023-03-26T08:56:00.660Z,0.9
2023-03-26T09:08:00.667Z,0.9
2023-03-26T09:20:00.822Z,0.9
2023-03-26T09:32:00.806Z,1
2023-03-26T09:44:00.701Z,1
2023-03-26T09:56:00.882Z,1
2023-03-26T10:08:00.806Z,1.1
2023-03-26T10:20:00.804Z,1.1
2023-03-26T10:32:00.746Z,1.3
2023-03-26T10:44:07.763Z,1.3
2023-03-26T10:56:01.393Z,1.3
2023-03-26T11:08:00.821Z,1.4
2023-03-26T11:20:00.806Z,1.4
2023-03-26T11:32:00.972Z,1.5
2023-03-26T11:44:00.877Z,1.5
2023-03-26T11:56:00.875Z,1.5
2023-03-26T12:08:00.990Z,1.5
2023-03-26T12:20:00.955Z,1.5
2023-03-26T12:32:01.093Z,1.6
2023-03-26T12:44:52.046Z,1.6
2023-03-26T12:56:00.998Z,1.6
2023-03-26T13:08:00.913Z,1.6
2023-03-26T13:20:01.132Z,1.6
2023-03-26T13:32:01.067Z,1.8
2023-03-26T13:44:00.977Z,1.8
2023-03-26T13:56:00.959Z,1.8
2023-03-26T14:08:01.080Z,1.9
2023-03-26T14:20:01.064Z,1.9
2023-03-26T14:32:01.037Z,1.9
2023-03-26T14:44:00.978Z,1.9
2023-03-26T14:56:01.117Z,1.9
2023-03-26T15:08:01.090Z,2
2023-03-26T15:20:01.036Z,2
2023-03-26T15:32:01.376Z,2
2023-03-26T15:44:23.213Z,2
2023-03-26T15:56:01.265Z,2
2023-03-26T16:08:01.050Z,2.1
2023-03-26T16:20:01.251Z,2.1
2023-03-26T16:32:01.252Z,2.1
2023-03-26T16:44:01.154Z,2.1
2023-03-26T16:56:01.095Z,2.1
2023-03-26T17:20:01.230Z,2.2
2023-03-26T17:32:01.250Z,2.3
2023-03-26T17:44:01.162Z,2.3
2023-03-26T17:56:01.296Z,2.3
2023-03-26T18:08:01.301Z,2.3
2023-03-26T18:20:01.198Z,2.3
2023-03-26T18:32:01.197Z,2.4
2023-03-26T18:44:01.318Z,2.4
2023-03-26T18:56:01.315Z,2.4
2023-03-26T19:08:02.127Z,2.4
2023-03-26T19:20:01.420Z,2.4
2023-03-26T19:32:01.347Z,2.5
2023-03-26T19:44:01.970Z,2.5
2023-03-26T19:56:01.270Z,2.5
2023-03-26T20:08:01.485Z,2.6
2023-03-26T20:20:01.386Z,2.6
2023-03-26T20:32:01.408Z,2.6
2023-03-26T20:44:01.494Z,2.6
2023-03-26T20:56:01.477Z,2.6
2023-03-26T21:08:01.456Z,2.7
2023-03-26T21:20:01.385Z,2.7
2023-03-26T21:32:01.524Z,2.8
2023-03-26T21:44:01.503Z,2.8
2023-03-26T21:56:01.442Z,2.8
2023-03-26T22:08:01.684Z,2.8
2023-03-26T22:20:01.524Z,2.8
2023-03-26T22:32:01.505Z,2.9
2023-03-26T22:44:06.504Z,2.9
2023-03-26T22:56:01.629Z,2.9
2023-03-26T23:08:01.595Z,0
2023-03-26T23:20:01.550Z,0
2023-03-26T23:32:01.475Z,0.1
2023-03-26T23:44:01.679Z,0.1
2023-03-26T23:56:01.597Z,0.1
